sensor_id;sensor_type;location;lat;lon;timestamp;pressure;altitude;pressure_sealevel;temperature;humidity
74372;BME280;62885;51.374;6.170;2024-03-07T00:01:12;63281.75;;;6.87;100.00
74372;BME280;62885;51.374;6.170;2024-03-07T00:03:37;63279.66;;;6.88;100.00
74372;BME280;62885;51.374;6.170;2024-03-07T00:06:04;63295.47;;;7.05;100.00
74372;BME280;62885;51.374;6.170;2024-03-07T00:08:29;63282.94;;;6.91;100.00
74372;BME280;62885;51.374;6.170;2024-03-07T00:10:56;63255.97;;;6.71;100.00
74372;BME280;62885;51.374;6.170;2024-03-07T00:13:21;63252.03;;;6.62;100.00
74372;BME280;62885;51.374;6.170;2024-03-07T00:15:46;63255.28;;;6.65;100.00
74372;BME280;62885;51.374;6.170;2024-03-07T00:18:12;63254.66;;;6.62;100.00
74372;BME280;62885;51.374;6.170;2024-03-07T00:20:40;63259.63;;;6.69;100.00
74372;BME280;62885;51.374;6.170;2024-03-07T00:23:05;63266.13;;;6.75;100.00
74372;BME280;62885;51.374;6.170;2024-03-07T00:25:31;63254.81;;;6.67;100.00
74372;BME280;62885;51.374;6.170;2024-03-07T00:27:57;63249.84;;;6.60;100.00
74372;BME280;62885;51.374;6.170;2024-03-07T00:30:27;63234.69;;;6.46;100.00
74372;BME280;62885;51.374;6.170;2024-03-07T00:32:54;63224.31;;;6.34;100.00
74372;BME280;62885;51.374;6.170;2024-03-07T00:35:21;63234.16;;;6.45;100.00
74372;BME280;62885;51.374;6.170;2024-03-07T00:37:47;63234.75;;;6.48;100.00
74372;BME280;62885;51.374;6.170;2024-03-07T00:40:12;63222.38;;;6.39;100.00
74372;BME280;62885;51.374;6.170;2024-03-07T00:42:38;63213.69;;;6.31;100.00
74372;BME280;62885;51.374;6.170;2024-03-07T00:45:04;63222.78;;;6.35;100.00
74372;BME280;62885;51.374;6.170;2024-03-07T00:47:30;63202.78;;;6.18;100.00
74372;BME280;62885;51.374;6.170;2024-03-07T00:49:57;63196.81;;;6.13;100.00
74372;BME280;62885;51.374;6.170;2024-03-07T00:52:22;63189.78;;;6.06;100.00
74372;BME280;62885;51.374;6.170;2024-03-07T00:54:47;63193.44;;;6.05;100.00
74372;BME280;62885;51.374;6.170;2024-03-07T00:57:13;63187.09;;;6.04;100.00
74372;BME280;62885;51.374;6.170;2024-03-07T00:59:39;63186.44;;;6.01;100.00
74372;BME280;62885;51.374;6.170;2024-03-07T01:02:04;63188.63;;;6.03;100.00
74372;BME280;62885;51.374;6.170;2024-03-07T01:04:30;63181.03;;;5.96;100.00
74372;BME280;62885;51.374;6.170;2024-03-07T01:06:59;63156.72;;;5.75;100.00
74372;BME280;62885;51.374;6.170;2024-03-07T01:09:25;63163.09;;;5.76;100.00
74372;BME280;62885;51.374;6.170;2024-03-07T01:11:51;63151.84;;;5.71;100.00
74372;BME280;62885;51.374;6.170;2024-03-07T01:14:16;63146.97;;;5.66;100.00
74372;BME280;62885;51.374;6.170;2024-03-07T01:16:41;63151.25;;;5.68;100.00
74372;BME280;62885;51.374;6.170;2024-03-07T01:19:07;63132.91;;;5.53;100.00
74372;BME280;62885;51.374;6.170;2024-03-07T01:21:34;63149.59;;;5.66;100.00
74372;BME280;62885;51.374;6.170;2024-03-07T01:24:00;63143.03;;;5.58;100.00
74372;BME280;62885;51.374;6.170;2024-03-07T01:26:27;63136.25;;;5.59;100.00
74372;BME280;62885;51.374;6.170;2024-03-07T01:28:53;63134.47;;;5.52;100.00
74372;BME280;62885;51.374;6.170;2024-03-07T01:31:20;63120.47;;;5.42;100.00
74372;BME280;62885;51.374;6.170;2024-03-07T01:33:45;63110.78;;;5.35;100.00
74372;BME280;62885;51.374;6.170;2024-03-07T01:36:11;63121.47;;;5.40;100.00
74372;BME280;62885;51.374;6.170;2024-03-07T01:38:36;63113.78;;;5.30;100.00
74372;BME280;62885;51.374;6.170;2024-03-07T01:41:01;63109.63;;;5.31;100.00
74372;BME280;62885;51.374;6.170;2024-03-07T01:43:27;63108.00;;;5.30;100.00
74372;BME280;62885;51.374;6.170;2024-03-07T01:45:56;63106.94;;;5.29;100.00
74372;BME280;62885;51.374;6.170;2024-03-07T01:48:26;63112.19;;;5.29;100.00
74372;BME280;62885;51.374;6.170;2024-03-07T01:50:54;63110.09;;;5.29;100.00
74372;BME280;62885;51.374;6.170;2024-03-07T01:53:21;63109.47;;;5.26;100.00
74372;BME280;62885;51.374;6.170;2024-03-07T01:55:47;63086.34;;;5.10;100.00
74372;BME280;62885;51.374;6.170;2024-03-07T01:58:17;63091.63;;;5.10;100.00
74372;BME280;62885;51.374;6.170;2024-03-07T02:00:43;63086.28;;;5.07;100.00
74372;BME280;62885;51.374;6.170;2024-03-07T02:03:09;63095.47;;;5.16;100.00
74372;BME280;62885;51.374;6.170;2024-03-07T02:05:34;63080.88;;;5.02;100.00
74372;BME280;62885;51.374;6.170;2024-03-07T02:08:00;63072.22;;;4.94;100.00
74372;BME280;62885;51.374;6.170;2024-03-07T02:10:27;63082.56;;;5.06;100.00
74372;BME280;62885;51.374;6.170;2024-03-07T02:12:52;63068.50;;;4.93;100.00
74372;BME280;62885;51.374;6.170;2024-03-07T02:15:18;63079.72;;;4.99;100.00
74372;BME280;62885;51.374;6.170;2024-03-07T02:17:44;63074.91;;;4.96;100.00
74372;BME280;62885;51.374;6.170;2024-03-07T02:20:09;63064.09;;;4.86;100.00
74372;BME280;62885;51.374;6.170;2024-03-07T02:22:37;63076.53;;;4.98;100.00
74372;BME280;62885;51.374;6.170;2024-03-07T02:25:02;63073.75;;;4.93;100.00
74372;BME280;62885;51.374;6.170;2024-03-07T02:27:27;63060.31;;;4.83;100.00
74372;BME280;62885;51.374;6.170;2024-03-07T02:29:53;63055.44;;;4.78;100.00
74372;BME280;62885;51.374;6.170;2024-03-07T02:32:19;63051.66;;;4.75;100.00
74372;BME280;62885;51.374;6.170;2024-03-07T02:34:44;63057.00;;;4.77;100.00
74372;BME280;62885;51.374;6.170;2024-03-07T02:37:09;63053.81;;;4.77;100.00
74372;BME280;62885;51.374;6.170;2024-03-07T02:39:37;63056.06;;;4.81;100.00
74372;BME280;62885;51.374;6.170;2024-03-07T02:42:03;63054.97;;;4.80;100.00
74372;BME280;62885;51.374;6.170;2024-03-07T02:44:28;63048.41;;;4.72;100.00
74372;BME280;62885;51.374;6.170;2024-03-07T02:46:54;63046.94;;;4.75;100.00
74372;BME280;62885;51.374;6.170;2024-03-07T02:49:20;63057.50;;;4.78;100.00
74372;BME280;62885;51.374;6.170;2024-03-07T02:51:46;63051.66;;;4.75;100.00
74372;BME280;62885;51.374;6.170;2024-03-07T02:54:12;63055.28;;;4.73;100.00
74372;BME280;62885;51.374;6.170;2024-03-07T02:56:37;63039.81;;;4.66;100.00
74372;BME280;62885;51.374;6.170;2024-03-07T02:59:03;63025.69;;;4.50;100.00
74372;BME280;62885;51.374;6.170;2024-03-07T03:01:28;63039.22;;;4.63;100.00
74372;BME280;62885;51.374;6.170;2024-03-07T03:03:54;63046.84;;;4.73;100.00
74372;BME280;62885;51.374;6.170;2024-03-07T03:06:19;63037.59;;;4.62;100.00
74372;BME280;62885;51.374;6.170;2024-03-07T03:08:47;63040.84;;;4.65;100.00
74372;BME280;62885;51.374;6.170;2024-03-07T03:11:13;63026.84;;;4.54;100.00
74372;BME280;62885;51.374;6.170;2024-03-07T03:13:40;63018.75;;;4.46;100.00
74372;BME280;62885;51.374;6.170;2024-03-07T03:16:05;63024.75;;;4.54;100.00
74372;BME280;62885;51.374;6.170;2024-03-07T03:18:34;63019.13;;;4.42;100.00
74372;BME280;62885;51.374;6.170;2024-03-07T03:21:00;63024.00;;;4.46;100.00
74372;BME280;62885;51.374;6.170;2024-03-07T03:23:27;63018.66;;;4.44;100.00
74372;BME280;62885;51.374;6.170;2024-03-07T03:25:52;63013.88;;;4.42;100.00
74372;BME280;62885;51.374;6.170;2024-03-07T03:28:19;63020.88;;;4.48;100.00
74372;BME280;62885;51.374;6.170;2024-03-07T03:30:46;63013.34;;;4.41;100.00
74372;BME280;62885;51.374;6.170;2024-03-07T03:33:12;63018.75;;;4.46;100.00
74372;BME280;62885;51.374;6.170;2024-03-07T03:35:38;63026.69;;;4.49;100.00
74372;BME280;62885;51.374;6.170;2024-03-07T03:38:04;62999.81;;;4.29;100.00
74372;BME280;62885;51.374;6.170;2024-03-07T03:40:29;63008.44;;;4.37;100.00
74372;BME280;62885;51.374;6.170;2024-03-07T03:42:55;62990.06;;;4.20;100.00
74372;BME280;62885;51.374;6.170;2024-03-07T03:45:20;62989.47;;;4.17;100.00
74372;BME280;62885;51.374;6.170;2024-03-07T03:47:46;62989.91;;;4.14;100.00
74372;BME280;62885;51.374;6.170;2024-03-07T03:50:12;62988.38;;;4.16;100.00
74372;BME280;62885;51.374;6.170;2024-03-07T03:52:39;62995.41;;;4.22;100.00
74372;BME280;62885;51.374;6.170;2024-03-07T03:55:05;62995.31;;;4.20;100.00
74372;BME280;62885;51.374;6.170;2024-03-07T03:57:41;62993.16;;;4.18;100.00
74372;BME280;62885;51.374;6.170;2024-03-07T04:00:09;62992.16;;;4.19;100.00
74372;BME280;62885;51.374;6.170;2024-03-07T04:02:43;63014.41;;;4.42;100.00
74372;BME280;62885;51.374;6.170;2024-03-07T04:05:09;62996.56;;;4.26;100.00
74372;BME280;62885;51.374;6.170;2024-03-07T04:07:36;62998.81;;;4.30;100.00
74372;BME280;62885;51.374;6.170;2024-03-07T04:10:02;62991.16;;;4.21;100.00
74372;BME280;62885;51.374;6.170;2024-03-07T04:12:28;62998.03;;;4.22;100.00
74372;BME280;62885;51.374;6.170;2024-03-07T04:14:54;63000.81;;;4.27;100.00
74372;BME280;62885;51.374;6.170;2024-03-07T04:17:21;63002.34;;;4.26;100.00
74372;BME280;62885;51.374;6.170;2024-03-07T04:19:50;63002.97;;;4.29;100.00
74372;BME280;62885;51.374;6.170;2024-03-07T04:22:16;63015.97;;;4.41;100.00
74372;BME280;62885;51.374;6.170;2024-03-07T04:24:44;63010.16;;;4.41;100.00
74372;BME280;62885;51.374;6.170;2024-03-07T04:27:09;63006.75;;;4.33;100.00
74372;BME280;62885;51.374;6.170;2024-03-07T04:29:35;62999.19;;;4.26;100.00
74372;BME280;62885;51.374;6.170;2024-03-07T04:32:01;63009.94;;;4.33;100.00
74372;BME280;62885;51.374;6.170;2024-03-07T04:34:28;63006.75;;;4.33;100.00
74372;BME280;62885;51.374;6.170;2024-03-07T04:36:56;63019.66;;;4.42;100.00
74372;BME280;62885;51.374;6.170;2024-03-07T04:39:21;63008.94;;;4.35;100.00
74372;BME280;62885;51.374;6.170;2024-03-07T04:41:53;63000.34;;;4.29;100.00
74372;BME280;62885;51.374;6.170;2024-03-07T04:44:20;63018.59;;;4.41;100.00
74372;BME280;62885;51.374;6.170;2024-03-07T04:46:48;63004.69;;;4.33;100.00
74372;BME280;62885;51.374;6.170;2024-03-07T04:49:15;63016.03;;;4.44;100.00
74372;BME280;62885;51.374;6.170;2024-03-07T04:51:40;63021.28;;;4.44;100.00
74372;BME280;62885;51.374;6.170;2024-03-07T04:54:06;63013.34;;;4.41;100.00
74372;BME280;62885;51.374;6.170;2024-03-07T04:56:31;63007.84;;;4.34;100.00
74372;BME280;62885;51.374;6.170;2024-03-07T04:58:57;63010.56;;;4.36;100.00
74372;BME280;62885;51.374;6.170;2024-03-07T05:01:22;63008.94;;;4.35;100.00
74372;BME280;62885;51.374;6.170;2024-03-07T05:03:47;63015.88;;;4.39;100.00
74372;BME280;62885;51.374;6.170;2024-03-07T05:06:13;63014.25;;;4.37;100.00
74372;BME280;62885;51.374;6.170;2024-03-07T05:08:38;63015.34;;;4.38;100.00
74372;BME280;62885;51.374;6.170;2024-03-07T05:11:03;63011.63;;;4.37;100.00
74372;BME280;62885;51.374;6.170;2024-03-07T05:13:29;62995.41;;;4.22;100.00
74372;BME280;62885;51.374;6.170;2024-03-07T05:15:56;62995.31;;;4.20;100.00
74372;BME280;62885;51.374;6.170;2024-03-07T05:18:22;62988.38;;;4.16;100.00
74372;BME280;62885;51.374;6.170;2024-03-07T05:20:48;62979.88;;;4.12;100.00
74372;BME280;62885;51.374;6.170;2024-03-07T05:23:14;62989.38;;;4.14;100.00
74372;BME280;62885;51.374;6.170;2024-03-07T05:25:39;62989.53;;;4.19;100.00
74372;BME280;62885;51.374;6.170;2024-03-07T05:28:05;62978.56;;;4.04;100.00
74372;BME280;62885;51.374;6.170;2024-03-07T05:30:31;62968.53;;;4.02;100.00
74372;BME280;62885;51.374;6.170;2024-03-07T05:32:57;62967.31;;;3.96;100.00
74372;BME280;62885;51.374;6.170;2024-03-07T05:35:23;62967.91;;;3.99;100.00
74372;BME280;62885;51.374;6.170;2024-03-07T05:37:49;62969.00;;;4.00;100.00
74372;BME280;62885;51.374;6.170;2024-03-07T05:40:15;62975.94;;;4.04;100.00
74372;BME280;62885;51.374;6.170;2024-03-07T05:42:41;62986.13;;;4.11;100.00
74372;BME280;62885;51.374;6.170;2024-03-07T05:45:07;62975.34;;;4.01;100.00
74372;BME280;62885;51.374;6.170;2024-03-07T05:47:33;62969.00;;;4.00;100.00
74372;BME280;62885;51.374;6.170;2024-03-07T05:49:58;62962.34;;;3.89;100.00
74372;BME280;62885;51.374;6.170;2024-03-07T05:52:24;62962.34;;;3.89;100.00
74372;BME280;62885;51.374;6.170;2024-03-07T05:54:49;62956.94;;;3.84;100.00
74372;BME280;62885;51.374;6.170;2024-03-07T05:57:14;62958.56;;;3.85;100.00
74372;BME280;62885;51.374;6.170;2024-03-07T05:59:40;62965.13;;;3.94;100.00
74372;BME280;62885;51.374;6.170;2024-03-07T06:02:05;62959.72;;;3.89;100.00
74372;BME280;62885;51.374;6.170;2024-03-07T06:04:31;62961.44;;;3.93;100.00
74372;BME280;62885;51.374;6.170;2024-03-07T06:06:57;62956.94;;;3.84;100.00
74372;BME280;62885;51.374;6.170;2024-03-07T06:09:23;62951.16;;;3.83;100.00
74372;BME280;62885;51.374;6.170;2024-03-07T06:11:49;62959.72;;;3.89;100.00
74372;BME280;62885;51.374;6.170;2024-03-07T06:14:14;62975.78;;;3.99;100.00
74372;BME280;62885;51.374;6.170;2024-03-07T06:16:41;62964.50;;;3.91;100.00
74372;BME280;62885;51.374;6.170;2024-03-07T06:19:07;62961.34;;;3.90;100.00
74372;BME280;62885;51.374;6.170;2024-03-07T06:21:35;62957.66;;;3.89;100.00
74372;BME280;62885;51.374;6.170;2024-03-07T06:24:02;62934.94;;;3.68;100.00
74372;BME280;62885;51.374;6.170;2024-03-07T06:26:32;62937.66;;;3.70;100.00
74372;BME280;62885;51.374;6.170;2024-03-07T06:29:25;62943.13;;;3.78;100.00
74372;BME280;62885;51.374;6.170;2024-03-07T06:31:50;62979.19;;;4.07;100.00
74372;BME280;62885;51.374;6.170;2024-03-07T06:34:15;63051.56;;;4.72;100.00
74372;BME280;62885;51.374;6.170;2024-03-07T06:36:42;63063.63;;;4.88;100.00
74372;BME280;62885;51.374;6.170;2024-03-07T06:39:08;63084.13;;;5.05;100.00
74372;BME280;62885;51.374;6.170;2024-03-07T06:41:35;63140.47;;;5.60;100.00
74372;BME280;62885;51.374;6.170;2024-03-07T06:44:01;63131.28;;;5.52;100.00
74372;BME280;62885;51.374;6.170;2024-03-07T06:46:27;63117.66;;;5.36;100.00
74372;BME280;62885;51.374;6.170;2024-03-07T06:48:53;63043.47;;;4.65;100.00
74372;BME280;62885;51.374;6.170;2024-03-07T06:51:19;62999.28;;;4.28;100.00
74372;BME280;62885;51.374;6.170;2024-03-07T06:53:44;62991.00;;;4.16;100.00
74372;BME280;62885;51.374;6.170;2024-03-07T06:56:13;62980.44;;;4.13;100.00
74372;BME280;62885;51.374;6.170;2024-03-07T06:58:40;62975.34;;;4.01;100.00
74372;BME280;62885;51.374;6.170;2024-03-07T07:01:05;62977.56;;;4.05;100.00
74372;BME280;62885;51.374;6.170;2024-03-07T07:03:35;62975.34;;;4.01;100.00
74372;BME280;62885;51.374;6.170;2024-03-07T07:06:01;62982.88;;;4.08;100.00
74372;BME280;62885;51.374;6.170;2024-03-07T07:08:26;62998.56;;;4.23;100.00
74372;BME280;62885;51.374;6.170;2024-03-07T07:10:55;62990.00;;;4.17;100.00
74372;BME280;62885;51.374;6.170;2024-03-07T07:13:21;62994.88;;;4.22;100.00
74372;BME280;62885;51.374;6.170;2024-03-07T07:15:47;62998.13;;;4.25;100.00
74372;BME280;62885;51.374;6.170;2024-03-07T07:18:12;63000.91;;;4.30;100.00
74372;BME280;62885;51.374;6.170;2024-03-07T07:20:39;63006.84;;;4.35;100.00
74372;BME280;62885;51.374;6.170;2024-03-07T07:23:04;63008.44;;;4.37;100.00
74372;BME280;62885;51.374;6.170;2024-03-07T07:25:30;63012.69;;;4.38;100.00
74372;BME280;62885;51.374;6.170;2024-03-07T07:27:56;63012.16;;;4.38;100.00
74372;BME280;62885;51.374;6.170;2024-03-07T07:30:22;63015.41;;;4.41;100.00
74372;BME280;62885;51.374;6.170;2024-03-07T07:32:49;63027.84;;;4.52;100.00
74372;BME280;62885;51.374;6.170;2024-03-07T07:35:15;63014.41;;;4.42;100.00
74372;BME280;62885;51.374;6.170;2024-03-07T07:37:48;63015.97;;;4.41;100.00
74372;BME280;62885;51.374;6.170;2024-03-07T07:40:19;63017.56;;;4.43;100.00
74372;BME280;62885;51.374;6.170;2024-03-07T07:42:45;63013.69;;;4.37;100.00
74372;BME280;62885;51.374;6.170;2024-03-07T07:45:12;63023.50;;;4.48;100.00
74372;BME280;62885;51.374;6.170;2024-03-07T07:47:45;63025.78;;;4.53;100.00
74372;BME280;62885;51.374;6.170;2024-03-07T07:50:23;63041.94;;;4.66;100.00
74372;BME280;62885;51.374;6.170;2024-03-07T07:52:50;63043.47;;;4.65;100.00
74372;BME280;62885;51.374;6.170;2024-03-07T07:55:26;63028.94;;;4.53;100.00
74372;BME280;62885;51.374;6.170;2024-03-07T07:58:01;63027.38;;;4.54;100.00
74372;BME280;62885;51.374;6.170;2024-03-07T08:00:30;63029.00;;;4.56;100.00
74372;BME280;62885;51.374;6.170;2024-03-07T08:03:06;63032.09;;;4.54;100.00
74372;BME280;62885;51.374;6.170;2024-03-07T08:05:35;63031.63;;;4.56;100.00
74372;BME280;62885;51.374;6.170;2024-03-07T08:08:08;63038.66;;;4.63;100.00
74372;BME280;62885;51.374;6.170;2024-03-07T08:10:37;63051.19;;;4.77;100.00
74372;BME280;62885;51.374;6.170;2024-03-07T08:13:03;63046.25;;;4.70;100.00
74372;BME280;62885;51.374;6.170;2024-03-07T08:15:31;63063.56;;;4.86;100.00
74372;BME280;62885;51.374;6.170;2024-03-07T08:17:58;63064.63;;;4.87;100.00
74372;BME280;62885;51.374;6.170;2024-03-07T08:20:25;63071.13;;;4.93;100.00
74372;BME280;62885;51.374;6.170;2024-03-07T08:22:54;63064.63;;;4.87;100.00
74372;BME280;62885;51.374;6.170;2024-03-07T08:25:22;63053.44;;;4.81;100.00
74372;BME280;62885;51.374;6.170;2024-03-07T08:27:52;63067.41;;;4.92;100.00
74372;BME280;62885;51.374;6.170;2024-03-07T08:30:18;63087.91;;;5.09;100.00
74372;BME280;62885;51.374;6.170;2024-03-07T08:32:49;63086.34;;;5.10;100.00
74372;BME280;62885;51.374;6.170;2024-03-07T08:35:15;63107.38;;;5.27;100.00
74372;BME280;62885;51.374;6.170;2024-03-07T08:37:46;63109.63;;;5.31;100.00
74372;BME280;62885;51.374;6.170;2024-03-07T08:40:12;63105.31;;;5.27;100.00
74372;BME280;62885;51.374;6.170;2024-03-07T08:42:44;63111.16;;;5.30;100.00
74372;BME280;62885;51.374;6.170;2024-03-07T08:45:10;63115.03;;;5.36;100.00
74372;BME280;62885;51.374;6.170;2024-03-07T08:47:36;63136.59;;;5.54;100.00
74372;BME280;62885;51.374;6.170;2024-03-07T08:50:03;63121.91;;;5.38;100.00
74372;BME280;62885;51.374;6.170;2024-03-07T08:52:34;63115.56;;;5.37;100.00
74372;BME280;62885;51.374;6.170;2024-03-07T08:55:02;63129.03;;;5.47;100.00
74372;BME280;62885;51.374;6.170;2024-03-07T08:57:28;63158.28;;;5.74;100.00
74372;BME280;62885;51.374;6.170;2024-03-07T08:59:53;63155.09;;;5.74;100.00
74372;BME280;62885;51.374;6.170;2024-03-07T09:02:18;63151.78;;;5.68;100.00
74372;BME280;62885;51.374;6.170;2024-03-07T09:04:44;63157.81;;;5.76;100.00
74372;BME280;62885;51.374;6.170;2024-03-07T09:07:09;63177.16;;;5.90;100.00
74372;BME280;62885;51.374;6.170;2024-03-07T09:09:35;63190.88;;;6.07;100.00
74372;BME280;62885;51.374;6.170;2024-03-07T09:12:01;63212.47;;;6.25;100.00
74372;BME280;62885;51.374;6.170;2024-03-07T09:14:29;63223.84;;;6.36;100.00
74372;BME280;62885;51.374;6.170;2024-03-07T09:16:55;63221.19;;;6.36;100.00
74372;BME280;62885;51.374;6.170;2024-03-07T09:19:20;63208.28;;;6.26;100.00
74372;BME280;62885;51.374;6.170;2024-03-07T09:21:50;63229.41;;;6.46;100.00
74372;BME280;62885;51.374;6.170;2024-03-07T09:24:19;63228.78;;;6.43;100.00
74372;BME280;62885;51.374;6.170;2024-03-07T09:26:51;63238.00;;;6.51;100.00
74372;BME280;62885;51.374;6.170;2024-03-07T09:29:17;63229.78;;;6.41;100.00
74372;BME280;62885;51.374;6.170;2024-03-07T09:31:44;63244.97;;;6.55;100.00
74372;BME280;62885;51.374;6.170;2024-03-07T09:34:10;63249.31;;;6.59;100.00
74372;BME280;62885;51.374;6.170;2024-03-07T09:36:38;63224.13;;;6.63;100.00
74372;BME280;62885;51.374;6.170;2024-03-07T09:39:04;63275.97;;;6.87;99.50
74372;BME280;62885;51.374;6.170;2024-03-07T09:41:29;63259.13;;;6.71;98.54
74372;BME280;62885;51.374;6.170;2024-03-07T09:43:56;63269.38;;;6.78;98.09
74372;BME280;62885;51.374;6.170;2024-03-07T09:46:22;63266.72;;;6.78;97.29
74372;BME280;62885;51.374;6.170;2024-03-07T09:48:49;63285.25;;;6.98;96.72
74372;BME280;62885;51.374;6.170;2024-03-07T09:51:20;63304.69;;;7.14;94.49
74372;BME280;62885;51.374;6.170;2024-03-07T09:53:46;63319.25;;;7.25;94.61
74372;BME280;62885;51.374;6.170;2024-03-07T09:56:17;63314.97;;;7.23;91.43
74372;BME280;62885;51.374;6.170;2024-03-07T09:58:50;63324.81;;;7.35;91.16
74372;BME280;62885;51.374;6.170;2024-03-07T10:01:19;63334.50;;;7.41;87.99
74372;BME280;62885;51.374;6.170;2024-03-07T10:03:46;63354.03;;;7.60;88.03
74372;BME280;62885;51.374;6.170;2024-03-07T10:06:12;63372.94;;;7.75;87.55
74372;BME280;62885;51.374;6.170;2024-03-07T10:08:39;63365.38;;;7.68;85.30
74372;BME280;62885;51.374;6.170;2024-03-07T10:11:06;63380.16;;;7.87;84.86
74372;BME280;62885;51.374;6.170;2024-03-07T10:13:33;63382.25;;;7.86;84.13
74372;BME280;62885;51.374;6.170;2024-03-07T10:16:00;63396.38;;;7.99;83.16
74372;BME280;62885;51.374;6.170;2024-03-07T10:18:26;63383.88;;;7.88;81.22
74372;BME280;62885;51.374;6.170;2024-03-07T10:20:55;63391.47;;;7.95;81.22
74372;BME280;62885;51.374;6.170;2024-03-07T10:23:21;63379.09;;;7.86;81.20
74372;BME280;62885;51.374;6.170;2024-03-07T10:25:47;63388.75;;;7.92;80.52
74372;BME280;62885;51.374;6.170;2024-03-07T10:28:13;63417.47;;;8.16;80.37
74372;BME280;62885;51.374;6.170;2024-03-07T10:30:43;63415.34;;;8.17;79.59
74372;BME280;62885;51.374;6.170;2024-03-07T10:33:11;63425.59;;;8.24;80.29
74372;BME280;62885;51.374;6.170;2024-03-07T10:35:38;63449.66;;;8.51;79.46
74372;BME280;62885;51.374;6.170;2024-03-07T10:38:03;63481.00;;;8.76;78.38
74372;BME280;62885;51.374;6.170;2024-03-07T10:40:32;63480.00;;;8.77;77.47
74372;BME280;62885;51.374;6.170;2024-03-07T10:42:58;63477.81;;;8.75;75.81
74372;BME280;62885;51.374;6.170;2024-03-07T10:45:29;63469.06;;;8.64;75.78
74372;BME280;62885;51.374;6.170;2024-03-07T10:47:57;63459.44;;;8.60;76.16
74372;BME280;62885;51.374;6.170;2024-03-07T10:50:31;63438.19;;;8.38;76.12
74372;BME280;62885;51.374;6.170;2024-03-07T10:55:54;63458.75;;;8.55;75.12
74372;BME280;62885;51.374;6.170;2024-03-07T11:01:04;63408.56;;;8.38;74.99
74372;BME280;62885;51.374;6.170;2024-03-07T11:03:34;63437.56;;;8.35;74.96
74372;BME280;62885;51.374;6.170;2024-03-07T11:06:01;63437.09;;;8.37;75.11
74372;BME280;62885;51.374;6.170;2024-03-07T11:08:33;63458.75;;;8.55;75.86
74372;BME280;62885;51.374;6.170;2024-03-07T11:10:59;63472.41;;;8.70;75.43
74372;BME280;62885;51.374;6.170;2024-03-07T11:13:25;63477.97;;;8.80;75.48
74372;BME280;62885;51.374;6.170;2024-03-07T11:15:52;63461.59;;;8.62;76.48
74372;BME280;62885;51.374;6.170;2024-03-07T11:18:22;63464.31;;;8.65;76.59
74372;BME280;62885;51.374;6.170;2024-03-07T11:20:49;63437.09;;;8.37;76.97
74372;BME280;62885;51.374;6.170;2024-03-07T11:23:30;63451.75;;;8.51;77.91
74372;BME280;62885;51.374;6.170;2024-03-07T11:26:03;63431.03;;;8.29;78.16
74372;BME280;62885;51.374;6.170;2024-03-07T11:28:39;63440.84;;;8.38;78.43
74372;BME280;62885;51.374;6.170;2024-03-07T11:31:26;63453.31;;;8.50;78.01
74372;BME280;62885;51.374;6.170;2024-03-07T11:34:15;63469.16;;;8.67;77.19
74372;BME280;62885;51.374;6.170;2024-03-07T11:36:47;63476.19;;;8.74;77.05
74372;BME280;62885;51.374;6.170;2024-03-07T11:39:46;63466.66;;;8.92;75.62
74372;BME280;62885;51.374;6.170;2024-03-07T11:42:28;63484.28;;;8.79;75.89
74372;BME280;62885;51.374;6.170;2024-03-07T11:44:56;63468.06;;;8.66;75.45
74372;BME280;62885;51.374;6.170;2024-03-07T11:47:22;63489.78;;;8.86;74.65
74372;BME280;62885;51.374;6.170;2024-03-07T11:49:50;63487.53;;;8.82;73.69
74372;BME280;62885;51.374;6.170;2024-03-07T11:52:18;63489.78;;;8.86;74.44
74372;BME280;62885;51.374;6.170;2024-03-07T11:54:44;63498.38;;;8.92;73.74
74372;BME280;62885;51.374;6.170;2024-03-07T11:57:15;63513.66;;;9.08;73.13
74372;BME280;62885;51.374;6.170;2024-03-07T11:59:40;63486.66;;;8.88;73.96
74372;BME280;62885;51.374;6.170;2024-03-07T12:02:11;63500.16;;;8.98;74.18
74372;BME280;62885;51.374;6.170;2024-03-07T12:04:36;63490.88;;;8.87;74.76
74372;BME280;62885;51.374;6.170;2024-03-07T12:07:02;63528.28;;;9.20;73.96
74372;BME280;62885;51.374;6.170;2024-03-07T12:09:31;63537.06;;;9.30;73.46
74372;BME280;62885;51.374;6.170;2024-03-07T12:11:56;63545.69;;;9.36;73.01
74372;BME280;62885;51.374;6.170;2024-03-07T12:14:24;63564.22;;;9.56;72.20
74372;BME280;62885;51.374;6.170;2024-03-07T12:16:49;63534.03;;;9.55;71.77
74372;BME280;62885;51.374;6.170;2024-03-07T12:19:17;63557.22;;;9.52;72.78
74372;BME280;62885;51.374;6.170;2024-03-07T12:21:46;63574.56;;;9.65;73.08
74372;BME280;62885;51.374;6.170;2024-03-07T12:24:12;63560.41;;;9.52;72.97
74372;BME280;62885;51.374;6.170;2024-03-07T12:26:38;63558.78;;;9.51;72.67
74372;BME280;62885;51.374;6.170;2024-03-07T12:29:08;63567.50;;;9.59;71.30
74372;BME280;62885;51.374;6.170;2024-03-07T12:31:39;63584.34;;;9.74;70.38
74372;BME280;62885;51.374;6.170;2024-03-07T12:34:05;63599.50;;;9.86;70.65
74372;BME280;62885;51.374;6.170;2024-03-07T12:36:34;63584.97;;;9.77;71.03
74372;BME280;62885;51.374;6.170;2024-03-07T12:39:21;63618.66;;;10.09;69.22
74372;BME280;62885;51.374;6.170;2024-03-07T12:41:50;63573.47;;;9.64;69.67
74372;BME280;62885;51.374;6.170;2024-03-07T12:44:18;63605.41;;;9.89;69.87
74372;BME280;62885;51.374;6.170;2024-03-07T12:46:47;63606.09;;;9.95;70.42
74372;BME280;62885;51.374;6.170;2024-03-07T12:49:12;63573.53;;;9.67;73.11
74372;BME280;62885;51.374;6.170;2024-03-07T12:51:43;63548.00;;;9.43;74.27
74372;BME280;62885;51.374;6.170;2024-03-07T12:54:09;63561.03;;;9.55;72.28
74372;BME280;62885;51.374;6.170;2024-03-07T12:56:35;63578.81;;;9.67;70.81
74372;BME280;62885;51.374;6.170;2024-03-07T12:59:05;63574.00;;;9.65;72.08
74372;BME280;62885;51.374;6.170;2024-03-07T13:01:35;63528.56;;;9.49;73.44
74372;BME280;62885;51.374;6.170;2024-03-07T13:04:05;63585.34;;;9.73;72.16
74372;BME280;62885;51.374;6.170;2024-03-07T13:06:33;63580.53;;;9.71;71.04
74372;BME280;62885;51.374;6.170;2024-03-07T13:08:58;63560.97;;;9.53;71.62